Time;durP1;ratioP1;P1;durP2;ratioP2;P2;SDS_P1;SDS_P2;PMS_P1;PMS_P2;Temp;Humidity;BMP_temperature;BMP_pressure;BME280_temperature;BME280_humidity;BME280_pressure;Samples;Min_cycle;Max_cycle;Signal;HPM_P1;HPM_P2
2021/03/06 00:00:13;;;;;;;4.30;1.92;;;;;;;-1.57;68.69;99731.56;1714208;83;20987;-77
2021/03/06 00:02:40;;;;;;;4.00;1.77;;;;;;;-1.60;68.89;99727.99;1714328;83;22306;-79
2021/03/06 00:05:09;;;;;;;9.25;1.37;;;;;;;-1.62;68.69;99738.70;1714084;83;21002;-78
2021/03/06 00:07:38;;;;;;;3.75;1.50;;;;;;;-1.63;68.85;99747.83;1714138;83;21125;-77
2021/03/06 00:10:08;;;;;;;8.70;2.35;;;;;;;-1.65;69.12;99741.33;1714143;82;21014;-77
2021/03/06 00:12:36;;;;;;;4.80;1.87;;;;;;;-1.71;69.00;99746.28;1717684;80;21158;-79
2021/03/06 00:15:05;;;;;;;5.80;1.62;;;;;;;-1.75;69.08;99745.95;1726330;83;21176;-77
2021/03/06 00:17:33;;;;;;;4.75;1.98;;;;;;;-1.78;69.47;99744.25;1728840;83;20961;-77
2021/03/06 00:20:02;;;;;;;5.75;1.75;;;;;;;-1.80;69.56;99742.31;1728807;83;20895;-77
2021/03/06 00:22:30;;;;;;;6.37;2.00;;;;;;;-1.84;69.31;99735.75;1721306;83;20947;-77
2021/03/06 00:24:58;;;;;;;6.83;2.37;;;;;;;-1.88;69.19;99738.09;1721364;83;21124;-77
2021/03/06 00:27:25;;;;;;;4.83;1.85;;;;;;;-1.93;69.32;99739.83;1721406;83;22285;-76
2021/03/06 00:29:53;;;;;;;8.28;2.10;;;;;;;-1.96;69.18;99744.31;1721370;83;21489;-77
2021/03/06 00:32:20;;;;;;;5.83;2.17;;;;;;;-2.03;69.16;99738.50;1721319;83;20899;-77
2021/03/06 00:34:48;;;;;;;6.25;1.98;;;;;;;-2.07;69.41;99742.70;1721308;83;21018;-76
2021/03/06 00:37:15;;;;;;;6.62;2.00;;;;;;;-2.12;69.53;99735.84;1721350;83;21128;-76
2021/03/06 00:39:43;;;;;;;8.70;1.95;;;;;;;-2.16;69.46;99740.03;1721382;82;22005;-76
2021/03/06 00:42:11;;;;;;;4.20;1.85;;;;;;;-2.19;69.35;99740.48;1721266;83;20954;-77
2021/03/06 00:44:40;;;;;;;5.62;2.08;;;;;;;-2.24;69.23;99741.69;1721276;83;21020;-79
2021/03/06 00:47:07;;;;;;;5.62;2.05;;;;;;;-2.29;69.52;99748.28;1721426;83;21571;-80
2021/03/06 00:49:35;;;;;;;7.75;2.40;;;;;;;-2.34;69.34;99750.33;1721442;83;20943;-81
2021/03/06 00:52:04;;;;;;;5.30;1.90;;;;;;;-2.39;69.10;99752.06;1721342;83;21382;-80
2021/03/06 00:54:31;;;;;;;12.18;3.02;;;;;;;-2.45;69.74;99751.09;1721280;83;21120;-80
2021/03/06 00:56:59;;;;;;;7.28;2.65;;;;;;;-2.49;69.70;99755.80;1721346;83;20938;-78
2021/03/06 00:59:26;;;;;;;8.10;2.30;;;;;;;-2.53;69.58;99758.64;1721254;83;21050;-79
2021/03/06 01:01:54;;;;;;;6.40;2.42;;;;;;;-2.57;69.74;99753.42;1721360;83;21092;-78
2021/03/06 01:04:24;;;;;;;4.92;1.98;;;;;;;-2.60;69.31;99759.24;1721319;83;21195;-80
2021/03/06 01:06:52;;;;;;;10.55;2.55;;;;;;;-2.66;69.34;99756.41;1721319;83;20967;-81
2021/03/06 01:09:20;;;;;;;8.83;2.27;;;;;;;-2.70;69.26;99754.39;1721342;82;20963;-81
2021/03/06 01:11:47;;;;;;;5.58;2.15;;;;;;;-2.75;69.87;99757.75;1721298;83;21132;-81
2021/03/06 01:14:14;;;;;;;9.28;2.42;;;;;;;-2.79;69.75;99759.77;1704056;83;21571;-81
2021/03/06 01:16:42;;;;;;;6.25;2.27;;;;;;;-2.83;69.55;99767.45;1709583;84;21384;-80
2021/03/06 01:19:09;;;;;;;5.53;2.30;;;;;;;-2.86;69.40;99775.13;1709522;84;20961;-80
2021/03/06 01:21:37;;;;;;;7.65;2.60;;;;;;;-2.89;69.57;99779.64;1709027;84;20997;-81
2021/03/06 01:24:05;;;;;;;6.47;2.70;;;;;;;-2.93;69.63;99772.55;1709248;84;21177;-80
2021/03/06 01:26:33;;;;;;;7.37;2.70;;;;;;;-2.96;69.51;99779.70;1709315;84;20939;-78
2021/03/06 01:29:00;;;;;;;6.83;2.98;;;;;;;-2.99;69.49;99786.86;1709304;82;21395;-79
2021/03/06 01:31:29;;;;;;;6.20;2.60;;;;;;;-3.02;69.75;99788.13;1709312;83;21497;-79
2021/03/06 01:33:57;;;;;;;7.47;3.33;;;;;;;-3.04;69.71;99788.05;1709290;84;21006;-80
2021/03/06 01:36:25;;;;;;;10.15;3.42;;;;;;;-3.09;69.68;99795.95;1709316;83;21193;-81
2021/03/06 01:38:52;;;;;;;14.65;4.00;;;;;;;-3.12;69.97;99792.36;1709345;83;21474;-80
2021/03/06 01:41:20;;;;;;;8.83;3.70;;;;;;;-3.15;70.20;99787.42;1709949;84;21395;-81
2021/03/06 01:43:47;;;;;;;9.83;3.72;;;;;;;-3.18;70.21;99787.87;1709771;83;21046;-78
2021/03/06 01:46:15;;;;;;;6.60;2.75;;;;;;;-3.22;70.32;99792.86;1709269;84;21160;-78
2021/03/06 01:48:42;;;;;;;7.30;2.90;;;;;;;-3.23;70.55;99801.13;1709248;82;21082;-77
2021/03/06 01:51:10;;;;;;;9.63;2.95;;;;;;;-3.27;70.27;99800.75;1709290;84;21085;-78
2021/03/06 01:53:37;;;;;;;6.28;2.65;;;;;;;-3.30;70.26;99805.21;1709200;84;21932;-77
2021/03/06 01:56:05;;;;;;;7.03;2.67;;;;;;;-3.32;70.40;99810.80;1709177;84;21042;-76
2021/03/06 01:58:33;;;;;;;6.58;2.33;;;;;;;-3.35;70.32;99815.27;1709262;84;20939;-76
2021/03/06 02:01:00;;;;;;;8.33;2.85;;;;;;;-3.39;70.13;99815.40;1709237;83;21086;-78
2021/03/06 02:03:28;;;;;;;6.10;2.12;;;;;;;-3.43;69.99;99820.91;1709376;84;21569;-77
2021/03/06 02:05:56;;;;;;;8.63;2.50;;;;;;;-3.47;70.20;99818.91;1709242;83;21344;-78
2021/03/06 02:08:24;;;;;;;10.75;2.30;;;;;;;-3.51;70.26;99822.54;1709158;82;21102;-78
2021/03/06 02:10:52;;;;;;;6.35;2.60;;;;;;;-3.54;70.09;99821.63;1709262;83;21507;-77
2021/03/06 02:13:53;;;;;;;12.60;2.62;;;;;;;-3.58;70.21;99827.13;1713226;82;21150;-80
2021/03/06 02:16:30;;;;;;;6.80;2.72;;;;;;;-3.59;70.77;99825.48;1728832;82;21062;-80
2021/03/06 02:19:23;;;;;;;7.22;2.42;;;;;;;-3.63;70.82;99826.95;1728786;83;21428;-79
2021/03/06 02:22:41;;;;;;;9.67;3.10;;;;;;;-3.67;70.78;99833.27;1728992;82;21070;-76
2021/03/06 02:26:03;;;;;;;5.17;2.20;;;;;;;-3.71;71.19;99840.63;1718048;83;21769;-77
2021/03/06 02:28:37;;;;;;;6.75;2.35;;;;;;;;;;1718277;83;21076;-77
2021/03/06 02:31:04;;;;;;;8.28;2.70;;;;;;;-3.80;70.91;99849.45;1718362;83;21073;-77
2021/03/06 02:33:32;;;;;;;6.80;2.15;;;;;;;-3.85;71.22;99848.45;1718135;83;21249;-78
2021/03/06 02:36:00;;;;;;;4.80;1.92;;;;;;;-3.90;71.34;99850.43;1718098;83;20951;-77
2021/03/06 02:38:28;;;;;;;5.08;1.90;;;;;;;-3.93;71.07;99851.38;1718206;82;20954;-78
2021/03/06 02:40:56;;;;;;;6.58;1.80;;;;;;;-3.97;71.00;99855.52;1718146;82;21050;-78
2021/03/06 02:43:25;;;;;;;6.78;2.22;;;;;;;-4.00;71.27;99856.25;1668995;83;21088;-78
2021/03/06 02:45:53;;;;;;;6.55;1.80;;;;;;;-4.01;71.09;99862.66;1718129;83;21335;-77
2021/03/06 02:48:21;;;;;;;4.55;2.10;;;;;;;-4.03;70.72;99864.72;1718215;83;21525;-77
2021/03/06 02:50:54;;;;;;;7.00;2.33;;;;;;;-4.07;70.90;99869.41;1718179;83;20986;-79
2021/03/06 02:53:22;;;;;;;5.60;1.55;;;;;;;-4.09;70.92;99874.17;1718236;83;21105;-79
2021/03/06 02:55:49;;;;;;;5.80;1.80;;;;;;;-4.13;70.87;99875.62;1718207;83;21085;-79
2021/03/06 02:58:23;;;;;;;7.42;1.60;;;;;;;-4.16;70.81;99880.89;1718219;83;21788;-79
2021/03/06 03:00:55;;;;;;;4.60;1.90;;;;;;;-4.17;70.92;99890.48;1717356;83;21101;-79
2021/03/06 03:03:47;;;;;;;5.22;1.75;;;;;;;-4.21;70.82;99887.41;1715766;83;21121;-79
2021/03/06 03:06:36;;;;;;;3.62;1.62;;;;;;;-4.26;70.64;99889.08;1652036;83;21631;-79
2021/03/06 03:09:12;;;;;;;5.40;2.45;;;;;;;-4.28;71.14;99897.84;1692054;83;21247;-79
2021/03/06 03:12:18;;;;;;;5.08;1.77;;;;;;;-4.32;71.04;99896.10;1718181;83;21374;-79
2021/03/06 03:14:51;;;;;;;6.70;2.20;;;;;;;-4.36;70.77;99899.72;1703683;83;21033;-79
2021/03/06 03:17:36;;;;;;;3.67;1.80;;;;;;;-4.39;70.22;99904.16;1709488;83;21616;-80
2021/03/06 03:20:28;;;;;;;4.90;1.70;;;;;;;-4.43;70.22;99904.27;1671663;84;21651;-83
2021/03/06 03:23:09;;;;;;;6.55;2.08;;;;;;;-4.45;69.70;99903.66;1709627;84;21559;-82
2021/03/06 03:25:37;;;;;;;6.33;1.80;;;;;;;-4.49;69.90;99895.73;1709516;84;21797;-81
2021/03/06 03:28:04;;;;;;;6.37;2.20;;;;;;;-4.49;69.51;99898.92;1709485;84;21674;-81
2021/03/06 03:30:33;;;;;;;4.00;1.60;;;;;;;-4.53;69.58;99904.39;1709742;77;21167;-83
2021/03/06 03:33:00;;;;;;;11.22;3.37;;;;;;;-4.57;69.55;99906.66;1744324;82;21567;-83
2021/03/06 03:35:29;;;;;;;14.03;5.03;;;;;;;-4.61;69.92;99901.93;1729782;82;21158;-80
2021/03/06 03:37:56;;;;;;;40.35;12.78;;;;;;;-4.66;69.59;99908.77;1744390;81;21263;-79
2021/03/06 03:40:24;;;;;;;40.45;12.50;;;;;;;-4.69;69.44;99909.70;1744319;80;20999;-80
2021/03/06 03:42:51;;;;;;;45.67;15.18;;;;;;;-4.72;69.84;99910.94;1744373;82;20947;-79
2021/03/06 03:45:20;;;;;;;32.93;10.28;;;;;;;-4.72;70.20;99910.94;1744392;82;21034;-82
2021/03/06 03:47:48;;;;;;;58.83;18.05;;;;;;;-4.73;70.46;99911.97;1744421;81;21636;-77
2021/03/06 03:50:16;;;;;;;74.30;21.23;;;;;;;-4.74;70.34;99910.32;1744320;82;21142;-78
2021/03/06 03:52:47;;;;;;;132.32;35.68;;;;;;;-4.76;70.60;99915.58;1744213;82;21570;-78
2021/03/06 03:55:18;;;;;;;129.85;38.28;;;;;;;-4.79;70.33;99921.34;1744687;82;20948;-78
2021/03/06 03:57:47;;;;;;;120.42;35.90;;;;;;;-4.84;70.29;99918.47;1744370;81;20959;-77
2021/03/06 04:00:18;;;;;;;114.37;31.93;;;;;;;-4.93;70.54;99916.50;1744454;82;20935;-77
2021/03/06 04:02:49;;;;;;;94.35;29.57;;;;;;;-5.05;71.10;99921.65;1744473;82;22102;-77
2021/03/06 04:05:17;;;;;;;73.72;23.60;;;;;;;-5.18;71.60;99925.66;1744323;82;21046;-77
2021/03/06 04:07:50;;;;;;;80.07;23.47;;;;;;;-5.25;71.88;99926.19;1744447;82;20944;-77
2021/03/06 04:10:22;;;;;;;70.42;21.23;;;;;;;-5.33;71.90;99932.56;1744378;81;21577;-77
2021/03/06 04:12:51;;;;;;;60.33;19.07;;;;;;;-5.47;72.35;99924.70;1744378;81;20991;-77
2021/03/06 04:15:20;;;;;;;46.75;14.98;;;;;;;-5.59;72.76;99924.47;1744344;82;21156;-77
2021/03/06 04:17:49;;;;;;;26.10;9.20;;;;;;;-5.68;73.28;99931.85;1729753;82;21156;-76
2021/03/06 04:20:20;;;;;;;22.52;8.68;;;;;;;-5.72;74.41;99933.79;1744425;81;21057;-77
2021/03/06 04:22:47;;;;;;;16.67;6.00;;;;;;;-5.71;74.30;99932.25;1744427;82;21514;-77
2021/03/06 04:25:16;;;;;;;19.52;9.48;;;;;;;-5.74;74.06;99931.31;1744396;82;21502;-77
2021/03/06 04:27:43;;;;;;;23.62;11.05;;;;;;;-5.72;75.72;99935.13;1744357;81;21198;-76
2021/03/06 04:30:12;;;;;;;14.85;7.55;;;;;;;-5.66;74.82;99937.00;1744072;81;21149;-78
2021/03/06 04:32:40;;;;;;;14.90;6.70;;;;;;;-5.62;74.18;99942.26;1744375;81;20991;-77
2021/03/06 04:35:09;;;;;;;13.98;5.33;;;;;;;-5.62;74.11;99942.77;1744380;82;21078;-77
2021/03/06 04:37:41;;;;;;;17.57;5.33;;;;;;;-5.63;74.69;99943.28;1744438;82;21058;-81
2021/03/06 04:40:11;;;;;;;17.27;5.40;;;;;;;-5.63;74.30;99947.30;1744584;80;22193;-78
2021/03/06 04:42:39;;;;;;;14.58;4.92;;;;;;;-5.63;73.73;99947.30;1744311;82;21022;-78
2021/03/06 04:45:08;;;;;;;17.67;5.75;;;;;;;-5.62;75.18;99945.45;1744354;82;21070;-78
2021/03/06 04:47:42;;;;;;;32.67;8.28;;;;;;;-5.58;74.60;99944.02;1744376;81;20936;-78
2021/03/06 04:50:11;;;;;;;17.02;6.10;;;;;;;-5.58;74.11;99948.86;1744475;81;21023;-78
2021/03/06 04:52:38;;;;;;;17.87;5.10;;;;;;;-5.59;74.13;99950.39;1744423;81;22600;-78
2021/03/06 04:55:07;;;;;;;15.83;5.92;;;;;;;-5.58;74.55;99954.20;1744138;82;21092;-81
2021/03/06 04:57:35;;;;;;;16.00;5.30;;;;;;;-5.54;74.32;99956.79;1741968;82;21088;-82
2021/03/06 05:00:06;;;;;;;13.50;5.25;;;;;;;-5.53;74.13;99962.97;1742316;82;21143;-83
2021/03/06 05:02:35;;;;;;;17.45;5.92;;;;;;;-5.53;75.28;99959.78;1742079;81;20958;-77
2021/03/06 05:05:07;;;;;;;13.80;5.08;;;;;;;-5.47;75.45;99965.66;1742236;82;21449;-80
2021/03/06 05:07:35;;;;;;;10.23;3.52;;;;;;;-5.44;74.77;99968.45;1742428;82;21104;-82
2021/03/06 05:10:04;;;;;;;9.88;4.47;;;;;;;-5.45;74.45;99970.30;1742156;82;21196;-80
2021/03/06 05:12:32;;;;;;;13.65;4.67;;;;;;;-5.42;74.73;99973.91;1742260;82;21156;-80
2021/03/06 05:15:00;;;;;;;16.35;6.28;;;;;;;-5.36;74.10;99984.32;1742417;82;21144;-82
2021/03/06 05:17:27;;;;;;;19.07;8.23;;;;;;;-5.33;73.97;99988.76;1743019;82;22322;-79
2021/03/06 05:19:55;;;;;;;24.57;8.25;;;;;;;-5.28;74.34;99988.67;1743466;82;20966;-79
2021/03/06 05:22:23;;;;;;;17.52;7.45;;;;;;;-5.24;74.17;99992.59;1743695;82;21659;-78
2021/03/06 05:24:50;;;;;;;15.88;6.67;;;;;;;-5.19;74.05;99998.12;1743353;82;21177;-79
2021/03/06 05:27:20;;;;;;;13.53;5.20;;;;;;;-5.16;73.70;99998.55;1741342;82;21028;-79
2021/03/06 05:29:47;;;;;;;11.45;4.28;;;;;;;-5.09;74.74;100002.58;1740206;81;22202;-78
2021/03/06 05:32:15;;;;;;;11.05;4.05;;;;;;;-5.02;74.13;100004.76;1733873;82;20954;-80
2021/03/06 05:34:42;;;;;;;11.30;4.20;;;;;;;-4.98;73.62;100011.35;1734043;82;20957;-79
2021/03/06 05:37:09;;;;;;;8.20;3.40;;;;;;;-4.93;74.20;100014.25;1711176;82;20998;-75
2021/03/06 05:39:37;;;;;;;10.78;4.28;;;;;;;-4.84;74.09;100013.54;1734240;82;21055;-74
2021/03/06 05:42:05;;;;;;;7.03;3.15;;;;;;;-4.77;73.19;100019.73;1734271;82;21426;-75
2021/03/06 05:44:34;;;;;;;10.90;3.70;;;;;;;-4.72;72.77;100026.13;1734173;82;21674;-81
2021/03/06 05:47:02;;;;;;;7.67;2.90;;;;;;;-4.65;72.56;100022.11;1734187;82;21021;-73
2021/03/06 05:49:33;;;;;;;9.18;4.22;;;;;;;-4.55;71.85;100036.41;1734246;82;21587;-76
2021/03/06 05:52:01;;;;;;;16.67;3.95;;;;;;;-4.50;72.19;100030.74;1733423;82;21211;-77
2021/03/06 05:54:31;;;;;;;8.88;3.20;;;;;;;-4.40;71.49;100039.71;1734024;82;20989;-73
2021/03/06 05:56:58;;;;;;;7.17;3.55;;;;;;;-4.33;70.06;100045.38;1734047;82;21614;-76
2021/03/06 05:59:27;;;;;;;9.65;3.45;;;;;;;-4.28;70.53;100048.78;1733231;82;21027;-77
2021/03/06 06:01:54;;;;;;;11.65;3.40;;;;;;;-4.18;70.13;100055.89;1732606;82;21583;-77
2021/03/06 06:04:26;;;;;;;12.50;3.87;;;;;;;-4.11;70.80;100058.57;1717658;82;21182;-78
2021/03/06 06:06:53;;;;;;;12.93;3.52;;;;;;;-4.03;69.69;100063.69;1725917;82;21333;-76
2021/03/06 06:09:21;;;;;;;9.98;3.33;;;;;;;-3.96;67.94;100063.16;1722465;82;21176;-75
2021/03/06 06:11:49;;;;;;;7.92;3.05;;;;;;;-3.93;68.24;100068.63;1703481;84;21134;-75
2021/03/06 06:14:18;;;;;;;11.03;3.80;;;;;;;-3.86;70.06;100080.17;1687832;84;21193;-74
2021/03/06 06:16:46;;;;;;;13.28;3.77;;;;;;;-3.77;69.21;100078.92;1703434;84;21066;-81
2021/03/06 06:19:13;;;;;;;7.60;3.37;;;;;;;-3.71;67.53;100081.59;1703471;84;21220;-81
2021/03/06 06:21:50;;;;;;;16.37;3.98;;;;;;;-3.63;69.02;100084.56;1703393;83;21145;-77
2021/03/06 06:24:20;;;;;;;9.70;3.35;;;;;;;-3.50;68.45;100081.84;1649440;87;20914;-78
2021/03/06 06:27:05;;;;;;;10.23;3.58;;;;;;;-3.37;69.17;100088.48;1664191;86;20987;-77
2021/03/06 06:29:48;;;;;;;7.83;3.10;;;;;;;-3.24;67.84;100086.27;1676197;84;21223;-79
2021/03/06 06:32:20;;;;;;;6.58;2.42;;;;;;;-3.12;66.06;100089.12;1661254;85;21397;-77
2021/03/06 06:35:06;;;;;;;30.02;6.17;;;;;;;-3.07;63.30;100090.12;1728331;82;21618;-77
2021/03/06 06:37:34;;;;;;;16.23;3.55;;;;;;;-2.99;67.06;100101.15;1731056;82;21585;-75
2021/03/06 06:40:21;;;;;;;11.28;3.62;;;;;;;-2.80;66.15;100089.45;1730953;82;21221;-75
2021/03/06 06:42:48;;;;;;;13.25;4.30;;;;;;;-2.66;65.36;100094.22;1731692;82;21201;-79
2021/03/06 06:45:16;;;;;;;7.22;3.50;;;;;;;-2.54;62.98;100104.59;1732061;82;21381;-78
2021/03/06 06:47:48;;;;;;;6.95;2.65;;;;;;;-2.50;62.87;100102.30;1731566;82;21027;-76
2021/03/06 06:50:33;;;;;;;11.20;4.45;;;;;;;-2.42;62.35;100104.72;1729928;82;20956;-76
2021/03/06 06:53:00;;;;;;;14.07;6.75;;;;;;;-2.36;61.44;100106.55;1729659;82;21058;-81
2021/03/06 06:55:38;;;;;;;24.85;7.53;;;;;;;-2.30;61.31;100108.33;1732274;82;21047;-76
2021/03/06 06:58:06;;;;;;;17.77;6.35;;;;;;;-2.25;59.75;100108.50;1731960;82;21502;-77
2021/03/06 07:00:35;;;;;;;8.30;3.92;;;;;;;-2.18;59.44;100106.59;1731833;82;21098;-77
2021/03/06 07:03:05;;;;;;;11.03;4.08;;;;;;;-2.11;59.89;100106.53;1731944;82;21523;-78
2021/03/06 07:05:40;;;;;;;27.00;7.35;;;;;;;-2.04;60.07;100109.47;1731891;82;21067;-76
2021/03/06 07:08:23;;;;;;;11.68;4.50;;;;;;;-1.87;59.18;100107.05;1731940;82;21098;-75
2021/03/06 07:10:51;;;;;;;;;;;;;;;-1.45;58.32;100116.66;1732219;82;21204;-79
2021/03/06 07:13:19;;;;;;;12.23;4.28;;;;;;;-0.80;54.66;100110.98;1732468;82;20504;-79
2021/03/06 07:15:53;;;;;;;7.40;2.40;;;;;;;-0.25;52.38;100117.55;1732533;82;21074;-75
2021/03/06 07:18:21;;;;;;;8.23;3.12;;;;;;;0.11;50.73;100112.48;1726802;82;21172;-77
2021/03/06 07:20:49;;;;;;;5.25;2.27;;;;;;;0.50;49.84;100108.27;1656291;85;21179;-77
2021/03/06 07:23:23;;;;;;;4.37;1.98;;;;;;;0.90;50.17;100114.23;1680166;85;21394;-78
2021/03/06 07:25:55;;;;;;;9.38;1.90;;;;;;;1.17;47.99;100115.30;1726998;82;21132;-80
2021/03/06 07:28:23;;;;;;;6.97;1.60;;;;;;;1.37;46.40;100119.47;1714438;82;21136;-77
2021/03/06 07:30:51;;;;;;;4.65;1.90;;;;;;;1.54;44.61;100117.10;1716102;81;21616;-77
2021/03/06 07:33:19;;;;;;;4.33;1.95;;;;;;;1.63;46.57;100116.17;1717775;81;21665;-78
2021/03/06 07:35:48;;;;;;;14.68;5.37;;;;;;;1.85;44.31;100121.15;1678219;85;21381;-78
2021/03/06 07:38:18;;;;;;;5.10;2.50;;;;;;;2.11;46.98;100121.05;1704100;84;21001;-76
2021/03/06 07:40:53;;;;;;;6.17;2.65;;;;;;;2.55;44.37;100124.69;1677199;85;21169;-76
2021/03/06 07:43:37;;;;;;;5.45;1.98;;;;;;;2.88;41.19;100127.04;1703624;84;21172;-75
2021/03/06 07:46:06;;;;;;;5.12;1.82;;;;;;;2.97;41.13;100126.86;1676897;85;21609;-76
2021/03/06 07:48:41;;;;;;;6.37;2.80;;;;;;;2.86;42.13;100123.75;1703865;83;21197;-75
2021/03/06 07:51:09;;;;;;;8.15;2.45;;;;;;;3.04;41.83;100130.20;1703640;84;21158;-76
2021/03/06 07:53:36;;;;;;;8.95;3.35;;;;;;;3.30;41.03;100129.98;1677528;85;20978;-75
2021/03/06 07:56:08;;;;;;;7.55;3.25;;;;;;;3.43;41.23;100133.66;1704072;84;21123;-76
2021/03/06 07:58:49;;;;;;;5.53;2.60;;;;;;;3.68;39.08;100118.69;1677682;85;21137;-75
2021/03/06 08:01:30;;;;;;;5.45;1.60;;;;;;;3.63;37.36;100128.97;1704492;82;21181;-76
2021/03/06 08:04:00;;;;;;;4.78;1.70;;;;;;;3.63;37.36;100128.97;1704473;84;21103;-77
2021/03/06 08:06:29;;;;;;;5.97;2.00;;;;;;;3.48;38.59;100135.05;1678344;85;20934;-76
2021/03/06 08:09:08;;;;;;;6.72;2.10;;;;;;;3.98;38.27;100125.23;1704832;84;21096;-77
2021/03/06 08:11:44;;;;;;;4.12;1.77;;;;;;;3.98;38.27;100125.23;1678334;85;21489;-77
2021/03/06 08:14:35;;;;;;;3.02;1.40;;;;;;;4.19;35.42;100130.28;1704954;84;22139;-78
2021/03/06 08:17:05;;;;;;;8.93;2.60;;;;;;;4.10;34.13;100137.80;1704914;83;21583;-77
2021/03/06 08:19:34;;;;;;;8.98;3.20;;;;;;;4.02;36.41;100130.16;1655708;85;21073;-77
2021/03/06 08:22:14;;;;;;;3.17;1.47;;;;;;;4.02;36.41;100130.16;1683072;84;21188;-78
2021/03/06 08:24:43;;;;;;;4.70;2.60;;;;;;;4.22;36.02;100129.76;1701296;84;21152;-78
2021/03/06 08:27:12;;;;;;;23.47;7.58;;;;;;;4.43;35.60;100128.56;1655019;85;21367;-78
2021/03/06 08:29:45;;;;;;;8.15;3.15;;;;;;;4.61;36.97;100139.84;1704727;84;21229;-77
2021/03/06 08:32:26;;;;;;;10.03;3.98;;;;;;;4.87;35.43;100134.53;1727367;82;21149;-77
2021/03/06 08:34:58;;;;;;;14.07;5.03;;;;;;;5.03;35.11;100131.34;1729322;83;20940;-77
2021/03/06 08:37:30;;;;;;;72.22;24.67;;;;;;;5.15;36.04;100142.30;1729256;83;21098;-77
2021/03/06 08:40:05;;;;;;;16.40;5.95;;;;;;;5.30;35.75;100139.61;1729171;83;21270;-77
2021/03/06 08:42:45;;;;;;;8.15;2.75;;;;;;;5.46;35.11;100135.58;1729054;83;21105;-78
2021/03/06 08:45:21;;;;;;;3.35;1.80;;;;;;;5.53;35.45;100139.69;1729212;83;21569;-76
2021/03/06 08:48:02;;;;;;;3.42;1.65;;;;;;;5.77;34.66;100133.21;1684747;85;21178;-79
2021/03/06 08:50:28;;;;;;;3.87;1.77;;;;;;;6.15;33.02;100135.17;1702104;81;21098;-78
2021/03/06 08:53:04;;;;;;;5.35;1.80;;;;;;;6.31;32.06;100136.80;1711853;83;22404;-78
2021/03/06 08:55:37;;;;;;;3.00;1.75;;;;;;;6.24;31.68;100143.90;1761709;80;21124;-78
2021/03/06 08:58:05;;;;;;;3.58;1.87;;;;;;;6.13;31.41;100139.53;1762544;81;21061;-78
2021/03/06 09:00:48;;;;;;;7.85;2.55;;;;;;;6.04;32.99;100144.42;1762128;81;21017;-78
2021/03/06 09:03:26;;;;;;;29.20;10.03;;;;;;;6.12;32.45;100139.25;1762223;81;21747;-83
2021/03/06 09:05:56;;;;;;;8.05;2.52;;;;;;;6.20;36.24;100150.16;1762385;81;21377;-78
2021/03/06 09:08:26;;;;;;;9.93;2.83;;;;;;;6.54;34.12;100138.95;1762025;80;21568;-79
2021/03/06 09:10:58;;;;;;;5.85;3.05;;;;;;;6.67;32.46;100135.38;1762284;81;20986;-78
2021/03/06 09:13:29;;;;;;;5.70;2.10;;;;;;;6.75;32.52;100143.02;1753834;81;29108;-78
2021/03/06 09:16:05;;;;;;;2.65;1.32;;;;;;;6.67;30.10;100139.48;1729056;81;21481;-77
2021/03/06 09:18:36;;;;;;;2.83;1.20;;;;;;;6.50;29.57;100139.77;1761679;81;21281;-81
2021/03/06 09:21:20;;;;;;;4.85;1.67;;;;;;;6.47;30.22;100136.23;1737905;81;21648;-80
2021/03/06 09:23:52;;;;;;;5.87;2.60;;;;;;;6.47;29.13;100138.95;1761086;81;21604;-81
2021/03/06 09:26:26;;;;;;;7.22;2.37;;;;;;;6.28;30.12;100142.80;1761439;81;21180;-79
2021/03/06 09:28:55;;;;;;;4.90;2.42;;;;;;;6.19;29.19;100142.53;1762002;81;21108;-80
2021/03/06 09:31:28;;;;;;;7.53;2.45;;;;;;;6.15;29.03;100148.25;1752392;81;21428;-78
2021/03/06 09:33:57;;;;;;;2.55;1.35;;;;;;;6.12;29.64;100142.53;1741117;81;21136;-79
2021/03/06 09:36:30;;;;;;;3.80;2.12;;;;;;;6.31;28.22;100154.53;1741032;82;21166;-78
2021/03/06 09:39:02;;;;;;;6.95;1.72;;;;;;;6.23;29.80;100150.98;1741455;82;21173;-80
2021/03/06 09:41:33;;;;;;;7.00;2.27;;;;;;;6.22;29.31;100148.80;1741631;82;21196;-81
2021/03/06 09:44:02;;;;;;;3.22;1.70;;;;;;;6.08;28.53;100146.88;1741417;82;21207;-80
2021/03/06 09:46:33;;;;;;;6.03;1.30;;;;;;;5.83;31.33;100147.09;1741380;82;21185;-78
2021/03/06 09:49:12;;;;;;;3.02;1.55;;;;;;;6.03;32.32;100144.97;1740927;82;21198;-82
2021/03/06 09:51:52;;;;;;;11.10;3.60;;;;;;;6.22;29.83;100145.26;1741296;81;21161;-83
2021/03/06 09:54:22;;;;;;;35.43;11.97;;;;;;;6.17;31.49;100137.89;1742185;81;21169;-81
2021/03/06 09:56:59;;;;;;;13.10;5.33;;;;;;;6.34;30.98;100139.53;1742125;82;22069;-85
2021/03/06 09:59:28;;;;;;;5.30;1.75;;;;;;;6.44;29.51;100132.68;1740736;82;21159;-78
2021/03/06 10:02:11;;;;;;;2.77;1.10;;;;;;;6.23;29.37;100142.27;1740674;82;21121;-76
2021/03/06 10:04:39;;;;;;;;;;;;;;;6.05;28.07;100138.70;1742658;82;21186;-78
2021/03/06 10:07:11;;;;;;;8.48;3.08;;;;;;;5.91;28.67;100139.78;1740060;82;20245;-76
2021/03/06 10:09:38;;;;;;;9.15;2.80;;;;;;;5.74;27.87;100137.02;1740672;82;21355;-75
2021/03/06 10:12:09;;;;;;;5.53;1.67;;;;;;;5.59;29.44;100140.52;1739861;82;21032;-73
2021/03/06 10:14:36;;;;;;;4.42;1.90;;;;;;;5.70;29.56;100129.92;1739665;82;21158;-73
2021/03/06 10:17:06;;;;;;;6.87;3.50;;;;;;;5.88;28.48;100132.11;1739962;82;21213;-85
2021/03/06 10:19:45;;;;;;;4.15;1.42;;;;;;;5.91;27.59;100141.14;1740129;82;21023;-77
2021/03/06 10:22:14;;;;;;;2.87;1.05;;;;;;;5.90;28.72;100129.97;1734299;81;21469;-78
2021/03/06 10:25:04;;;;;;;4.20;1.67;;;;;;;6.01;28.13;100130.80;1739890;81;21189;-80
2021/03/06 10:27:48;;;;;;;3.02;1.50;;;;;;;6.09;29.29;100132.16;1704398;81;21608;-77
2021/03/06 10:30:27;;;;;;;3.50;1.57;;;;;;;6.31;29.29;100123.72;1739183;82;21118;-75
2021/03/06 10:33:03;;;;;;;4.70;1.50;;;;;;;6.55;29.24;100125.58;1761804;81;21581;-75
2021/03/06 10:35:52;;;;;;;3.27;1.47;;;;;;;6.72;28.94;100129.92;1762428;81;21559;-77
2021/03/06 10:38:26;;;;;;;3.15;1.32;;;;;;;6.87;28.21;100123.06;1762130;81;21188;-76
2021/03/06 10:40:58;;;;;;;2.22;1.00;;;;;;;6.63;28.14;100113.29;1756704;81;21129;-76
2021/03/06 10:43:32;;;;;;;;;;;;;;;6.47;29.11;100123.95;1766683;81;21022;-76
2021/03/06 10:46:24;;;;;;;3.35;1.20;;;;;;;6.42;28.86;100119.31;1764861;81;20609;-76
2021/03/06 10:49:00;;;;;;;7.33;2.12;;;;;;;6.19;28.71;100120.72;1749245;81;22237;-76
2021/03/06 10:51:50;;;;;;;2.75;1.80;;;;;;;6.16;30.91;100117.72;1752050;81;21225;-75
2021/03/06 10:54:19;;;;;;;2.47;1.20;;;;;;;6.42;31.10;100112.50;1728750;81;20952;-75
2021/03/06 10:56:47;;;;;;;3.70;1.35;;;;;;;6.68;28.82;100123.38;1747452;80;21110;-75
2021/03/06 10:59:22;;;;;;;4.22;1.57;;;;;;;6.56;29.47;100112.76;1747469;81;21089;-77
2021/03/06 11:01:53;;;;;;;3.90;1.50;;;;;;;6.43;28.08;100116.86;1751590;81;22297;-77
2021/03/06 11:04:28;;;;;;;4.15;1.40;;;;;;;6.31;28.59;100106.81;1751884;81;21023;-76
2021/03/06 11:06:59;;;;;;;8.23;1.37;;;;;;;6.42;28.89;100113.86;1764481;81;21070;-78
2021/03/06 11:09:30;;;;;;;;;;;;;;;6.45;28.58;100109.77;1767438;81;20939;-77
2021/03/06 11:11:59;;;;;;;4.83;2.40;;;;;;;6.42;30.15;100119.31;1765033;81;20216;-77
2021/03/06 11:14:27;;;;;;;5.97;2.37;;;;;;;6.63;30.56;100115.48;1715860;81;21301;-79
2021/03/06 11:16:55;;;;;;;7.37;2.58;;;;;;;6.81;29.18;100117.34;1764791;81;20951;-74
2021/03/06 11:19:24;;;;;;;2.25;1.22;;;;;;;6.76;29.50;100109.17;1764924;81;21074;-74
2021/03/06 11:21:52;;;;;;;6.70;3.12;;;;;;;6.90;27.68;100103.41;1764803;81;21577;-75
2021/03/06 11:24:19;;;;;;;3.15;1.67;;;;;;;6.99;27.57;100110.45;1764859;81;21621;-75
2021/03/06 11:26:47;;;;;;;3.17;1.47;;;;;;;6.71;27.91;100105.09;1764794;81;21398;-76
2021/03/06 11:29:14;;;;;;;6.45;2.10;;;;;;;6.48;28.59;100092.31;1764811;80;21471;-75
2021/03/06 11:31:44;;;;;;;11.33;3.17;;;;;;;6.50;29.88;100096.95;1755916;81;21541;-76
2021/03/06 11:34:12;;;;;;;5.60;1.80;;;;;;;6.74;30.14;100099.08;1744241;82;21642;-75
2021/03/06 11:36:39;;;;;;;4.28;1.55;;;;;;;7.06;28.88;100100.05;1702198;84;21195;-75
2021/03/06 11:39:07;;;;;;;7.80;3.30;;;;;;;6.72;27.45;100102.63;1683597;85;21397;-76
2021/03/06 11:41:34;;;;;;;5.15;1.50;;;;;;;6.31;28.16;100090.45;1708084;84;21128;-76
2021/03/06 11:44:02;;;;;;;5.50;1.50;;;;;;;6.00;28.22;100091.00;1744204;82;20995;-76
2021/03/06 11:46:30;;;;;;;9.25;3.08;;;;;;;5.66;28.52;100095.32;1744197;81;21113;-76
2021/03/06 11:48:59;;;;;;;4.60;1.72;;;;;;;5.13;29.79;100102.28;1744244;82;21668;-76